Terminal Aerodrome Forecast
Issued by NWS

Current Version | Previous Version | Text Only | Print | Product List | Glossary On
Versions: 1 2 3 4 5 6 7 8 9 10 11 12 13 14 15 16 17 18 19 20
000
FTUS42 KGSP 282029 AAA
TAFGMU
TAF AMD
KGMU 282029Z 2820/2918 19006KT P6SM VCTS SCT045CB BKN120
      TEMPO 2820/2823 23010G20KT 3SM TSRA BKN030CB
     FM290200 00000KT P6SM BKN200
     FM291000 00000KT 5SM BR BKN040
     FM291400 00000KT P6SM BKN040=

USA.gov is the U.S. government's official web portal to all federal, state and local government web resources and services.